createdAt,value
2019-03-15T00:01:14.185Z,7.40
2019-03-15T00:03:43.616Z,7.40
2019-03-15T00:06:13.043Z,7.40
2019-03-15T00:08:42.476Z,7.30
2019-03-15T00:11:11.968Z,7.30
2019-03-15T00:13:41.392Z,7.30
2019-03-15T00:16:10.806Z,7.20
2019-03-15T00:18:40.290Z,7.20
2019-03-15T00:21:09.728Z,7.20
2019-03-15T00:23:39.197Z,7.20
2019-03-15T00:26:08.631Z,7.10
2019-03-15T00:28:38.055Z,7.10
2019-03-15T00:31:07.537Z,7.10
2019-03-15T00:33:36.961Z,7.10
2019-03-15T00:36:06.406Z,7.00
2019-03-15T00:38:35.867Z,7.00
2019-03-15T00:41:05.384Z,7.00
2019-03-15T00:43:34.780Z,7.00
2019-03-15T00:46:04.230Z,7.00
2019-03-15T00:48:33.630Z,7.10
2019-03-15T00:51:03.065Z,7.20
2019-03-15T00:53:32.521Z,7.30
2019-03-15T00:56:01.967Z,7.30
2019-03-15T00:58:31.437Z,7.40
2019-03-15T01:01:00.865Z,7.50
2019-03-15T01:03:30.290Z,7.60
2019-03-15T01:05:59.695Z,7.70
2019-03-15T01:08:29.122Z,7.70
2019-03-15T01:10:58.534Z,7.80
2019-03-15T01:13:28.039Z,7.80
2019-03-15T01:15:57.449Z,7.80
2019-03-15T01:18:26.865Z,7.80
2019-03-15T01:20:56.290Z,7.90
2019-03-15T01:23:25.705Z,7.90
2019-03-15T01:25:55.154Z,8.00
2019-03-15T01:28:26.420Z,8.00
2019-03-15T01:30:56.215Z,8.10
2019-03-15T01:33:25.658Z,8.20
2019-03-15T01:35:55.046Z,8.40
2019-03-15T01:38:24.510Z,8.50
2019-03-15T01:40:53.916Z,8.50
2019-03-15T01:43:23.336Z,8.60
2019-03-15T01:45:53.528Z,8.60
2019-03-15T01:48:22.935Z,8.60
2019-03-15T01:50:52.372Z,8.60
2019-03-15T01:53:21.792Z,8.60
2019-03-15T01:55:51.525Z,8.80
2019-03-15T01:58:20.971Z,8.90
2019-03-15T02:00:50.374Z,9.00
2019-03-15T02:03:19.808Z,9.00
2019-03-15T02:05:49.230Z,9.00
2019-03-15T02:08:18.626Z,8.90
2019-03-15T02:10:48.061Z,8.80
2019-03-15T02:13:17.499Z,8.70
2019-03-15T02:15:47.235Z,8.70
2019-03-15T02:18:16.641Z,8.60
2019-03-15T02:20:46.099Z,8.50
2019-03-15T02:23:15.513Z,8.50
2019-03-15T02:25:44.930Z,8.40
2019-03-15T02:28:14.365Z,8.30
2019-03-15T02:30:43.779Z,8.30
2019-03-15T02:33:13.203Z,8.30
2019-03-15T02:35:42.638Z,8.20
2019-03-15T02:38:12.038Z,8.10
2019-03-15T02:40:41.436Z,8.00
2019-03-15T02:43:10.862Z,8.00
2019-03-15T02:45:40.295Z,7.90
2019-03-15T02:48:09.704Z,7.90
2019-03-15T02:50:39.194Z,7.90
2019-03-15T02:53:09.154Z,7.80
2019-03-15T02:55:38.814Z,7.80
2019-03-15T02:58:08.242Z,7.80
2019-03-15T03:00:37.734Z,7.70
2019-03-15T03:03:07.163Z,7.70
2019-03-15T03:05:36.965Z,7.70
2019-03-15T03:08:06.352Z,7.70
2019-03-15T03:10:35.788Z,7.70
2019-03-15T03:13:05.277Z,7.70
2019-03-15T03:15:34.693Z,7.70
2019-03-15T03:18:04.124Z,7.70
2019-03-15T03:20:33.961Z,7.70
2019-03-15T03:23:04.025Z,7.70
2019-03-15T03:25:33.521Z,7.70
2019-03-15T03:28:02.948Z,7.70
2019-03-15T03:30:32.364Z,7.70
2019-03-15T03:33:01.752Z,7.70
2019-03-15T03:35:31.180Z,7.80
2019-03-15T03:38:00.604Z,7.80
2019-03-15T03:40:30.636Z,7.90
2019-03-15T03:43:00.126Z,8.00
2019-03-15T03:45:29.574Z,8.00
2019-03-15T03:47:59.028Z,8.10
2019-03-15T03:50:28.656Z,8.10
2019-03-15T03:52:58.281Z,8.20
2019-03-15T03:55:27.919Z,8.20
2019-03-15T03:57:57.327Z,8.20
2019-03-15T04:00:26.827Z,8.20
2019-03-15T04:02:56.244Z,8.20
2019-03-15T04:05:25.672Z,8.20
2019-03-15T04:07:55.086Z,8.20
2019-03-15T04:10:24.532Z,8.20
2019-03-15T04:12:53.942Z,8.30
2019-03-15T04:15:23.345Z,8.30
2019-03-15T04:17:52.851Z,8.40
2019-03-15T04:20:22.266Z,8.50
2019-03-15T04:22:51.697Z,8.50
2019-03-15T04:25:21.117Z,8.60
2019-03-15T04:27:50.504Z,8.80
2019-03-15T04:30:19.934Z,8.90
2019-03-15T04:32:49.376Z,9.00
2019-03-15T04:35:18.778Z,9.00
2019-03-15T04:37:48.494Z,9.10
2019-03-15T04:40:18.312Z,9.20
2019-03-15T04:42:48.126Z,9.20
2019-03-15T04:45:36.865Z,9.30
2019-03-15T04:48:06.297Z,9.30
2019-03-15T04:50:35.703Z,9.40
2019-03-15T04:53:05.477Z,9.40
2019-03-15T04:55:34.904Z,9.40
2019-03-15T04:58:04.388Z,9.50
2019-03-15T05:00:33.886Z,9.60
2019-03-15T05:03:03.306Z,9.70
2019-03-15T05:05:32.738Z,9.70
2019-03-15T05:08:02.154Z,9.70
2019-03-15T05:10:31.558Z,9.80
2019-03-15T05:13:01.047Z,9.80
2019-03-15T05:15:30.456Z,9.90
2019-03-15T05:17:59.920Z,9.90
2019-03-15T05:20:29.327Z,10.00
2019-03-15T05:22:58.848Z,10.00
2019-03-15T05:25:29.950Z,10.10
2019-03-15T05:28:00.017Z,10.20
2019-03-15T05:30:29.460Z,10.30
2019-03-15T05:32:58.912Z,10.30
2019-03-15T05:35:28.746Z,10.40
2019-03-15T05:37:58.167Z,10.50
2019-03-15T05:40:27.576Z,10.50
2019-03-15T05:42:57.025Z,10.60
2019-03-15T05:45:26.434Z,10.60
2019-03-15T05:47:55.943Z,10.70
2019-03-15T05:50:27.538Z,10.70
2019-03-15T05:52:57.297Z,10.80
2019-03-15T05:55:26.777Z,10.80
2019-03-15T05:57:56.586Z,10.90
2019-03-15T06:00:26.035Z,10.90
2019-03-15T06:02:55.472Z,10.90
2019-03-15T06:05:24.874Z,10.90
2019-03-15T06:07:54.409Z,10.80
2019-03-15T06:10:23.910Z,10.90
2019-03-15T06:12:53.337Z,10.90
2019-03-15T06:15:22.763Z,10.90
2019-03-15T06:17:52.361Z,10.90
2019-03-15T06:20:21.816Z,10.90
2019-03-15T06:22:51.216Z,10.90
2019-03-15T06:25:21.028Z,10.90
2019-03-15T06:27:50.448Z,10.90
2019-03-15T06:30:19.902Z,11.00
2019-03-15T06:32:49.400Z,11.00
2019-03-15T06:35:18.884Z,11.00
2019-03-15T06:37:48.660Z,11.00
2019-03-15T06:40:18.167Z,11.00
2019-03-15T06:42:47.625Z,11.00
2019-03-15T06:45:17.041Z,11.00
2019-03-15T06:47:46.535Z,11.00
2019-03-15T06:50:16.044Z,11.00
2019-03-15T06:52:45.452Z,11.00
2019-03-15T06:55:14.891Z,11.00
2019-03-15T06:57:44.319Z,11.10
2019-03-15T07:00:15.856Z,11.10
2019-03-15T07:02:46.026Z,11.10
2019-03-15T07:05:16.116Z,11.10
2019-03-15T07:07:45.803Z,11.10
2019-03-15T07:10:15.324Z,11.20
2019-03-15T07:12:44.793Z,11.20
2019-03-15T07:15:15.117Z,11.20
2019-03-15T07:17:44.547Z,11.20
2019-03-15T07:20:17.831Z,11.30
2019-03-15T07:22:47.325Z,11.30
2019-03-15T07:25:16.848Z,11.30
2019-03-15T07:27:46.268Z,11.30
2019-03-15T07:30:16.959Z,11.30
2019-03-15T07:32:46.413Z,11.30
2019-03-15T07:35:15.846Z,11.30
2019-03-15T07:37:45.952Z,11.40
2019-03-15T07:40:15.585Z,11.40
2019-03-15T07:42:45.000Z,11.50
2019-03-15T07:45:15.344Z,11.50
2019-03-15T07:47:44.765Z,11.50
2019-03-15T07:50:15.858Z,11.50
2019-03-15T07:52:45.775Z,11.50
2019-03-15T07:55:15.263Z,11.50
2019-03-15T07:57:44.701Z,11.60
2019-03-15T08:00:18.554Z,11.60
2019-03-15T08:02:48.045Z,11.60
2019-03-15T08:05:17.471Z,11.60
2019-03-15T08:07:46.938Z,11.60
2019-03-15T08:10:16.507Z,11.60
2019-03-15T08:12:49.363Z,11.60
2019-03-15T08:15:17.206Z,11.60
2019-03-15T08:17:46.925Z,11.60
2019-03-15T08:20:16.425Z,11.60
2019-03-15T08:22:45.853Z,11.60
2019-03-15T08:25:15.302Z,11.60
2019-03-15T08:27:44.728Z,11.60
2019-03-15T08:30:18.870Z,11.70
2019-03-15T08:32:51.453Z,11.70
2019-03-15T08:35:24.223Z,11.70
2019-03-15T08:37:54.958Z,11.70
2019-03-15T08:40:25.810Z,11.80
2019-03-15T08:42:55.952Z,11.80
2019-03-15T08:45:25.386Z,11.90
2019-03-15T08:47:54.816Z,11.90
2019-03-15T08:50:24.753Z,11.90
2019-03-15T08:52:54.641Z,11.90
2019-03-15T08:55:24.094Z,11.90
2019-03-15T08:57:53.525Z,11.90
2019-03-15T09:00:23.079Z,11.90
2019-03-15T09:02:52.557Z,12.00
2019-03-15T09:05:22.299Z,12.00
2019-03-15T09:07:51.815Z,12.00
2019-03-15T09:10:23.594Z,12.00
2019-03-15T09:12:52.857Z,12.00
2019-03-15T09:15:22.603Z,12.00
2019-03-15T09:17:52.370Z,12.10
2019-03-15T09:20:21.827Z,12.10
2019-03-15T09:22:51.324Z,12.10
2019-03-15T09:25:21.292Z,12.10
2019-03-15T09:27:50.936Z,12.10
2019-03-15T09:30:24.353Z,12.20
2019-03-15T09:32:51.529Z,12.10
2019-03-15T09:35:21.206Z,12.20
2019-03-15T09:37:50.666Z,12.20
2019-03-15T09:40:20.100Z,12.20
2019-03-15T09:42:49.504Z,12.30
2019-03-15T09:45:19.853Z,12.30
2019-03-15T09:47:49.347Z,12.30
2019-03-15T09:50:33.832Z,12.30
2019-03-15T09:52:50.104Z,12.30
2019-03-15T09:55:32.229Z,12.40
2019-03-15T09:57:50.851Z,12.40
2019-03-15T10:00:21.183Z,12.40
2019-03-15T10:02:50.766Z,12.40
2019-03-15T10:05:20.267Z,12.40
2019-03-15T10:07:50.480Z,12.40
2019-03-15T10:10:20.277Z,12.50
2019-03-15T10:12:49.824Z,12.50
2019-03-15T10:15:19.440Z,12.50
2019-03-15T10:17:48.865Z,12.50
2019-03-15T10:20:18.356Z,12.50
2019-03-15T10:23:03.988Z,12.50
2019-03-15T10:25:19.253Z,12.50
2019-03-15T10:27:48.756Z,12.60
2019-03-15T10:30:21.945Z,12.60
2019-03-15T10:32:51.358Z,12.70
2019-03-15T10:35:21.162Z,12.60
2019-03-15T10:37:50.631Z,12.60
2019-03-15T10:40:24.577Z,12.60
2019-03-15T10:42:55.599Z,12.60
2019-03-15T10:45:25.398Z,12.60
2019-03-15T10:47:54.830Z,12.70
2019-03-15T10:50:24.234Z,12.70
2019-03-15T10:52:54.202Z,12.70
2019-03-15T10:55:23.771Z,12.70
2019-03-15T10:57:53.631Z,12.70
2019-03-15T11:00:23.060Z,12.80
2019-03-15T11:02:52.559Z,12.80
2019-03-15T11:05:22.060Z,12.80
2019-03-15T11:07:51.483Z,12.80
2019-03-15T11:10:21.126Z,12.90
2019-03-15T11:12:51.286Z,12.80
2019-03-15T11:15:21.053Z,12.80
2019-03-15T11:17:50.591Z,12.90
2019-03-15T11:20:20.358Z,12.90
2019-03-15T11:22:49.867Z,13.00
2019-03-15T11:25:19.290Z,13.00
2019-03-15T11:27:48.712Z,12.90
2019-03-15T11:30:18.210Z,13.00
2019-03-15T11:32:47.640Z,13.00
2019-03-15T11:35:17.171Z,13.00
2019-03-15T11:37:46.571Z,13.00
2019-03-15T11:40:19.634Z,13.10
2019-03-15T11:42:49.228Z,13.00
2019-03-15T11:45:18.662Z,13.00
2019-03-15T11:48:02.537Z,13.10
2019-03-15T11:50:23.083Z,13.10
2019-03-15T11:52:52.615Z,13.10
2019-03-15T11:55:22.103Z,13.20
2019-03-15T11:57:51.912Z,13.20
2019-03-15T12:00:21.501Z,13.30
2019-03-15T12:02:51.010Z,13.30
2019-03-15T12:05:20.442Z,13.30
2019-03-15T12:07:49.873Z,13.30
2019-03-15T12:10:19.369Z,13.30
2019-03-15T12:12:48.893Z,13.30
2019-03-15T12:15:19.724Z,13.30
2019-03-15T12:17:49.175Z,13.30
2019-03-15T12:20:18.662Z,13.30
2019-03-15T12:22:48.158Z,13.20
2019-03-15T12:25:17.814Z,13.20
2019-03-15T12:27:47.258Z,13.20
2019-03-15T12:30:18.577Z,13.20
2019-03-15T12:32:48.313Z,13.10
2019-03-15T12:35:17.916Z,13.10
2019-03-15T12:37:47.398Z,13.00
2019-03-15T12:40:18.944Z,12.90
2019-03-15T12:42:48.372Z,12.80
2019-03-15T12:45:17.793Z,12.90
2019-03-15T12:47:47.239Z,12.80
2019-03-15T12:50:17.301Z,12.80
2019-03-15T12:52:48.236Z,12.80
2019-03-15T12:55:17.999Z,12.90
2019-03-15T12:57:49.264Z,12.90
2019-03-15T13:00:22.116Z,12.90
2019-03-15T13:02:51.618Z,13.00
2019-03-15T13:05:21.083Z,13.00
2019-03-15T13:07:50.514Z,13.00
2019-03-15T13:10:22.201Z,13.10
2019-03-15T13:12:51.705Z,13.10
2019-03-15T13:15:21.139Z,13.10
2019-03-15T13:17:50.639Z,13.20
2019-03-15T13:20:20.147Z,13.20
2019-03-15T13:22:49.571Z,13.20
2019-03-15T13:25:19.013Z,13.20
2019-03-15T13:27:48.437Z,13.10
2019-03-15T13:30:18.244Z,13.10
2019-03-15T13:32:47.735Z,13.00
2019-03-15T13:35:17.287Z,13.00
2019-03-15T13:37:46.727Z,13.00
2019-03-15T13:40:17.955Z,13.10
2019-03-15T13:42:47.518Z,13.10
2019-03-15T13:45:17.794Z,13.10
2019-03-15T13:47:47.488Z,13.00
2019-03-15T13:50:22.362Z,13.00
2019-03-15T13:52:51.777Z,13.00
2019-03-15T13:55:21.288Z,13.00
2019-03-15T13:57:50.708Z,12.90
2019-03-15T14:00:20.701Z,12.80
2019-03-15T14:02:50.190Z,12.80
2019-03-15T14:05:19.597Z,12.70
2019-03-15T14:07:49.437Z,12.70
2019-03-15T14:10:18.996Z,12.60
2019-03-15T14:12:49.991Z,12.50
2019-03-15T14:15:22.305Z,12.40
2019-03-15T14:17:51.745Z,12.30
2019-03-15T14:20:21.196Z,12.30
2019-03-15T14:22:50.699Z,12.30
2019-03-15T14:25:27.314Z,12.20
2019-03-15T14:27:56.718Z,12.20
2019-03-15T14:30:26.246Z,12.30
2019-03-15T14:32:55.721Z,12.30
2019-03-15T14:35:25.215Z,12.30
2019-03-15T14:37:54.813Z,12.30
2019-03-15T14:40:24.482Z,12.30
2019-03-15T14:42:54.087Z,12.40
2019-03-15T14:45:23.718Z,12.30
2019-03-15T14:47:53.475Z,12.20
2019-03-15T14:50:22.925Z,12.20
2019-03-15T14:52:52.345Z,12.20
2019-03-15T14:55:21.788Z,12.10
2019-03-15T14:57:53.284Z,12.00
2019-03-15T15:00:22.478Z,12.10
2019-03-15T15:02:52.000Z,12.10
2019-03-15T15:05:21.412Z,12.10
2019-03-15T15:07:50.863Z,12.00
2019-03-15T15:10:20.559Z,12.00
2019-03-15T15:12:49.995Z,12.00
2019-03-15T15:15:20.723Z,12.00
2019-03-15T15:17:50.136Z,12.00
2019-03-15T15:20:19.572Z,12.00
2019-03-15T15:22:48.989Z,12.00
2019-03-15T15:25:18.888Z,12.00
2019-03-15T15:27:48.371Z,12.00
2019-03-15T15:30:19.545Z,12.10
2019-03-15T15:32:49.007Z,12.10
2019-03-15T15:35:18.525Z,12.00
2019-03-15T15:37:47.947Z,12.00
2019-03-15T15:40:21.102Z,11.90
2019-03-15T15:42:50.602Z,11.90
2019-03-15T15:45:23.672Z,11.80
2019-03-15T15:47:53.918Z,11.90
2019-03-15T15:50:23.392Z,11.90
2019-03-15T15:52:52.814Z,11.90
2019-03-15T15:55:22.239Z,12.00
2019-03-15T15:57:51.970Z,12.00
2019-03-15T16:00:21.396Z,12.00
2019-03-15T16:02:50.882Z,12.00
2019-03-15T16:05:20.379Z,12.00
2019-03-15T16:07:49.919Z,12.10
2019-03-15T16:10:19.396Z,12.00
2019-03-15T16:12:48.889Z,12.10
2019-03-15T16:15:21.425Z,12.10
2019-03-15T16:17:50.912Z,12.10
2019-03-15T16:20:20.362Z,12.10
2019-03-15T16:22:49.799Z,12.10
2019-03-15T16:25:19.200Z,12.10
2019-03-15T16:27:48.647Z,12.20
2019-03-15T16:30:21.590Z,12.20
2019-03-15T16:32:51.444Z,12.30
2019-03-15T16:35:20.848Z,12.30
2019-03-15T16:37:50.418Z,12.30
2019-03-15T16:40:19.956Z,12.30
2019-03-15T16:42:49.470Z,12.30
2019-03-15T16:45:28.134Z,12.30
2019-03-15T16:47:57.570Z,12.30
2019-03-15T16:50:27.094Z,12.20
2019-03-15T16:52:56.515Z,12.20
2019-03-15T16:55:26.058Z,12.20
2019-03-15T16:57:55.485Z,12.20
2019-03-15T17:00:24.983Z,12.20
2019-03-15T17:02:54.423Z,12.30
2019-03-15T17:05:23.834Z,12.30
2019-03-15T17:07:53.398Z,12.30
2019-03-15T17:10:22.876Z,12.30
2019-03-15T17:12:55.624Z,12.30
2019-03-15T17:15:30.370Z,12.30
2019-03-15T17:17:59.859Z,12.30
2019-03-15T17:20:29.281Z,12.30
2019-03-15T17:22:58.713Z,12.30
2019-03-15T17:25:28.215Z,12.30
2019-03-15T17:27:57.989Z,12.30
2019-03-15T17:30:27.414Z,12.30
2019-03-15T17:32:57.011Z,12.30
2019-03-15T17:35:26.512Z,12.40
2019-03-15T17:37:55.952Z,12.40
2019-03-15T17:40:25.459Z,12.40
2019-03-15T17:42:55.155Z,12.30
2019-03-15T17:45:24.752Z,12.30
2019-03-15T17:47:54.160Z,12.30
2019-03-15T17:50:28.276Z,12.30
2019-03-15T17:52:57.716Z,12.30
2019-03-15T17:55:27.131Z,12.30
2019-03-15T17:57:56.580Z,12.30
2019-03-15T18:00:43.836Z,12.30
2019-03-15T18:03:20.850Z,12.30
2019-03-15T18:05:44.796Z,12.30
2019-03-15T18:08:14.319Z,12.30
2019-03-15T18:10:43.891Z,12.30
2019-03-15T18:13:13.397Z,12.30
2019-03-15T18:15:43.310Z,12.30
2019-03-15T18:18:12.800Z,12.30
2019-03-15T18:20:42.647Z,12.30
2019-03-15T18:23:12.269Z,12.40
2019-03-15T18:25:41.796Z,12.30
2019-03-15T18:28:11.349Z,12.30
2019-03-15T18:30:40.861Z,12.20
2019-03-15T18:33:10.283Z,12.10
2019-03-15T18:35:39.892Z,12.20
2019-03-15T18:38:09.727Z,12.10
2019-03-15T18:40:39.165Z,12.10
2019-03-15T18:43:08.591Z,12.10
2019-03-15T18:45:38.130Z,12.10
2019-03-15T18:48:07.622Z,12.00
2019-03-15T18:50:37.059Z,12.00
2019-03-15T18:53:06.503Z,12.00
2019-03-15T18:55:36.007Z,12.00
2019-03-15T18:58:05.545Z,12.00
2019-03-15T19:00:34.972Z,11.90
2019-03-15T19:03:04.570Z,11.90
2019-03-15T19:05:34.074Z,11.80
2019-03-15T19:08:03.513Z,11.80
2019-03-15T19:10:32.958Z,11.80
2019-03-15T19:13:02.392Z,11.80
2019-03-15T19:15:31.808Z,11.80
2019-03-15T19:18:01.242Z,11.80
2019-03-15T19:20:30.730Z,11.90
2019-03-15T19:23:00.206Z,11.90
2019-03-15T19:25:29.644Z,12.00
2019-03-15T19:27:59.104Z,12.00
2019-03-15T19:30:28.537Z,12.00
2019-03-15T19:32:58.058Z,11.90
2019-03-15T19:35:27.498Z,12.00
2019-03-15T19:37:56.922Z,12.00
2019-03-15T19:40:26.394Z,12.00
2019-03-15T19:42:56.260Z,12.00
2019-03-15T19:45:25.745Z,12.00
2019-03-15T19:47:55.197Z,12.00
2019-03-15T19:50:24.626Z,12.10
2019-03-15T19:52:54.080Z,12.10
2019-03-15T19:55:23.490Z,12.10
2019-03-15T19:57:53.003Z,12.10
2019-03-15T20:00:22.982Z,12.00
2019-03-15T20:02:52.859Z,12.10
2019-03-15T20:05:22.458Z,12.00
2019-03-15T20:07:51.963Z,12.00
2019-03-15T20:10:21.738Z,12.00
2019-03-15T20:12:51.172Z,12.00
2019-03-15T20:15:20.588Z,12.00
2019-03-15T20:17:50.047Z,12.00
2019-03-15T20:20:20.793Z,12.00
2019-03-15T20:22:50.250Z,12.00
2019-03-15T20:25:20.239Z,12.00
2019-03-15T20:27:49.669Z,12.00
2019-03-15T20:30:25.983Z,12.00
2019-03-15T20:32:52.541Z,12.00
2019-03-15T20:35:22.070Z,12.00
2019-03-15T20:37:51.560Z,12.00
2019-03-15T20:40:20.973Z,11.90
2019-03-15T20:42:50.851Z,11.90
2019-03-15T20:45:26.321Z,11.80
2019-03-15T20:47:55.783Z,11.80
2019-03-15T20:50:25.213Z,11.80
2019-03-15T20:53:07.600Z,11.80
2019-03-15T20:55:28.401Z,11.80
2019-03-15T20:57:56.949Z,11.80
2019-03-15T21:00:35.411Z,11.80
2019-03-15T21:02:57.828Z,11.80
2019-03-15T21:05:27.284Z,11.90
2019-03-15T21:07:56.772Z,11.90
2019-03-15T21:10:26.186Z,11.90
2019-03-15T21:12:55.638Z,11.90
2019-03-15T21:15:25.133Z,11.90
2019-03-15T21:17:54.590Z,11.90
2019-03-15T21:20:24.013Z,11.90
2019-03-15T21:22:53.440Z,11.90
2019-03-15T21:25:22.883Z,11.90
2019-03-15T21:27:54.594Z,11.90
2019-03-15T21:30:25.788Z,11.90
2019-03-15T21:32:55.229Z,11.90
2019-03-15T21:35:24.612Z,11.90
2019-03-15T21:37:54.067Z,11.90
2019-03-15T21:40:23.856Z,11.90
2019-03-15T21:42:53.296Z,11.90
2019-03-15T21:45:22.719Z,11.80
2019-03-15T21:47:52.233Z,11.80
2019-03-15T21:50:23.068Z,11.80
2019-03-15T21:52:52.967Z,11.70
2019-03-15T21:55:22.470Z,11.70
2019-03-15T21:57:51.958Z,11.70
2019-03-15T22:00:21.883Z,11.60
2019-03-15T22:02:51.277Z,11.50
2019-03-15T22:05:20.714Z,11.50
2019-03-15T22:07:50.186Z,11.40
2019-03-15T22:10:19.676Z,11.40
2019-03-15T22:12:49.256Z,11.40
2019-03-15T22:15:20.311Z,11.40
2019-03-15T22:17:49.972Z,11.30
2019-03-15T22:20:19.448Z,11.30
2019-03-15T22:22:48.947Z,11.30
2019-03-15T22:25:18.412Z,11.30
2019-03-15T22:27:50.065Z,11.30
2019-03-15T22:30:19.074Z,11.40
2019-03-15T22:32:48.524Z,11.30
2019-03-15T22:35:17.950Z,11.40
2019-03-15T22:37:47.402Z,11.40
2019-03-15T22:40:16.976Z,11.30
2019-03-15T22:42:46.445Z,11.30
2019-03-15T22:45:16.493Z,11.30
2019-03-15T22:47:45.912Z,11.30
2019-03-15T22:50:15.843Z,11.30
2019-03-15T22:52:45.307Z,11.30
2019-03-15T22:55:14.832Z,11.30
2019-03-15T22:57:44.275Z,11.30
2019-03-15T23:00:19.327Z,11.20
2019-03-15T23:02:49.019Z,11.30
2019-03-15T23:05:18.454Z,11.20
2019-03-15T23:07:47.875Z,11.20
2019-03-15T23:10:17.309Z,11.10
2019-03-15T23:12:46.727Z,11.10
2019-03-15T23:15:16.303Z,11.10
2019-03-15T23:17:45.813Z,11.00
2019-03-15T23:20:15.821Z,11.00
2019-03-15T23:22:45.228Z,11.00
2019-03-15T23:25:14.752Z,11.00
2019-03-15T23:27:44.178Z,10.90
2019-03-15T23:30:16.356Z,10.90
2019-03-15T23:32:45.860Z,10.90
2019-03-15T23:35:15.747Z,10.90
2019-03-15T23:37:45.180Z,10.90
2019-03-15T23:40:15.326Z,10.80
2019-03-15T23:42:44.825Z,10.80
2019-03-15T23:45:14.591Z,10.80
2019-03-15T23:47:44.010Z,10.80
2019-03-15T23:50:15.021Z,10.80
2019-03-15T23:52:44.900Z,10.80
2019-03-15T23:55:14.716Z,10.80
2019-03-15T23:57:44.145Z,10.80
